createdAt,value
2023-01-28T00:00:15.178Z,3.62
2023-01-28T00:01:15.265Z,3.50
2023-01-28T00:02:15.212Z,3.52
2023-01-28T00:03:15.231Z,3.62
2023-01-28T00:04:15.268Z,3.52
2023-01-28T00:05:15.651Z,3.36
2023-01-28T00:06:15.292Z,3.45
2023-01-28T00:07:15.303Z,3.29
2023-01-28T00:08:15.314Z,3.29
2023-01-28T00:09:15.333Z,3.28
2023-01-28T00:10:15.350Z,3.31
2023-01-28T00:11:15.367Z,3.23
2023-01-28T00:12:15.384Z,3.14
2023-01-28T00:13:15.398Z,3.20
2023-01-28T00:14:15.416Z,3.20
2023-01-28T00:15:15.767Z,3.13
2023-01-28T00:16:15.529Z,3.20
2023-01-28T00:17:15.479Z,3.11
2023-01-28T00:18:15.483Z,3.17
2023-01-28T00:19:15.505Z,3.02
2023-01-28T00:20:15.515Z,3.05
2023-01-28T00:21:15.544Z,3.03
2023-01-28T00:22:15.550Z,3.05
2023-01-28T00:23:15.565Z,3.20
2023-01-28T00:24:15.628Z,3.17
2023-01-28T00:25:16.059Z,3.05
2023-01-28T00:26:15.620Z,3.17
2023-01-28T00:27:15.639Z,3.18
2023-01-28T00:28:15.648Z,3.11
2023-01-28T00:29:15.669Z,3.17
2023-01-28T00:30:15.684Z,3.23
2023-01-28T00:31:15.708Z,3.08
2023-01-28T00:32:15.715Z,3.17
2023-01-28T00:33:15.735Z,3.13
2023-01-28T00:34:15.749Z,3.05
2023-01-28T00:35:16.188Z,3.05
2023-01-28T00:36:15.787Z,3.18
2023-01-28T00:37:15.794Z,3.14
2023-01-28T00:38:15.822Z,3.13
2023-01-28T00:39:15.859Z,3.15
2023-01-28T00:40:15.862Z,3.17
2023-01-28T00:41:15.891Z,3.11
2023-01-28T00:42:15.886Z,3.18
2023-01-28T00:43:15.910Z,3.18
2023-01-28T00:44:15.919Z,3.15
2023-01-28T00:45:16.310Z,3.18
2023-01-28T00:46:15.989Z,3.17
2023-01-28T00:47:15.971Z,3.15
2023-01-28T00:48:15.991Z,3.28
2023-01-28T00:49:16.003Z,3.24
2023-01-28T00:50:16.023Z,3.15
2023-01-28T00:51:16.037Z,3.17
2023-01-28T00:52:16.055Z,3.17
2023-01-28T00:53:16.071Z,3.21
2023-01-28T00:54:16.096Z,3.21
2023-01-28T00:55:16.423Z,3.21
2023-01-28T00:56:16.122Z,3.11
2023-01-28T00:57:16.139Z,3.05
2023-01-28T00:58:16.156Z,2.99
2023-01-28T00:59:16.173Z,3.06
2023-01-28T01:00:16.198Z,2.95
2023-01-28T01:01:16.258Z,2.93
2023-01-28T01:02:16.270Z,2.97
2023-01-28T01:03:16.254Z,2.97
2023-01-28T01:04:16.261Z,2.93
2023-01-28T01:05:16.653Z,2.95
2023-01-28T01:06:16.310Z,2.95
2023-01-28T01:07:16.317Z,2.96
2023-01-28T01:08:16.341Z,2.93
2023-01-28T01:09:16.342Z,2.97
2023-01-28T01:10:16.356Z,2.95
2023-01-28T01:11:16.374Z,2.92
2023-01-28T01:12:16.388Z,2.97
2023-01-28T01:13:16.406Z,2.95
2023-01-28T01:14:16.422Z,2.95
2023-01-28T01:15:16.724Z,2.96
2023-01-28T01:16:16.457Z,3.02
2023-01-28T01:17:16.484Z,2.90
2023-01-28T01:18:16.492Z,2.97
2023-01-28T01:19:16.505Z,2.97
2023-01-28T01:20:16.521Z,3.05
2023-01-28T01:21:16.540Z,2.93
2023-01-28T01:22:16.564Z,3.02
2023-01-28T01:23:16.579Z,3.05
2023-01-28T01:24:16.685Z,3.02
2023-01-28T01:25:17.149Z,3.03
2023-01-28T01:26:16.623Z,2.97
2023-01-28T01:27:16.640Z,2.97
2023-01-28T01:28:16.656Z,2.99
2023-01-28T01:29:16.684Z,2.87
2023-01-28T01:30:16.689Z,2.93
2023-01-28T01:31:16.708Z,2.92
2023-01-28T01:32:16.723Z,2.96
2023-01-28T01:33:16.741Z,2.95
2023-01-28T01:34:16.756Z,2.93
2023-01-28T01:35:17.068Z,2.95
2023-01-28T01:36:16.797Z,3.02
2023-01-28T01:37:16.809Z,2.97
2023-01-28T01:38:16.830Z,2.92
2023-01-28T01:39:16.840Z,2.93
2023-01-28T01:40:16.857Z,2.97
2023-01-28T01:41:16.873Z,2.89
2023-01-28T01:42:16.889Z,2.96
2023-01-28T01:43:16.908Z,2.99
2023-01-28T01:44:16.934Z,2.96
2023-01-28T01:45:17.366Z,2.93
2023-01-28T01:46:17.050Z,2.90
2023-01-28T01:47:16.975Z,3.00
2023-01-28T01:48:16.991Z,3.14
2023-01-28T01:49:17.007Z,3.11
2023-01-28T01:50:17.026Z,3.03
2023-01-28T01:51:17.050Z,3.06
2023-01-28T01:52:17.055Z,3.03
2023-01-28T01:53:17.072Z,2.97
2023-01-28T01:54:17.095Z,3.06
2023-01-28T01:55:17.365Z,2.97
2023-01-28T01:56:17.123Z,2.99
2023-01-28T01:57:17.143Z,3.00
2023-01-28T01:58:17.164Z,3.02
2023-01-28T01:59:17.174Z,3.11
2023-01-28T02:00:17.188Z,3.05
2023-01-28T02:01:17.204Z,3.08
2023-01-28T02:02:17.282Z,3.08
2023-01-28T02:03:17.351Z,3.00
2023-01-28T02:04:17.254Z,3.08
2023-01-28T02:05:17.780Z,3.03
2023-01-28T02:06:17.290Z,3.02
2023-01-28T02:07:17.327Z,3.08
2023-01-28T02:08:17.347Z,3.08
2023-01-28T02:09:17.344Z,3.03
2023-01-28T02:10:17.358Z,2.97
2023-01-28T02:11:17.373Z,2.93
2023-01-28T02:12:17.390Z,2.99
2023-01-28T02:13:17.412Z,2.96
2023-01-28T02:14:30.720Z,3.05
2023-01-28T02:15:17.741Z,2.93
2023-01-28T02:16:17.505Z,2.96
2023-01-28T02:17:17.473Z,2.97
2023-01-28T02:18:17.499Z,2.85
2023-01-28T02:19:17.508Z,2.97
2023-01-28T02:20:17.525Z,2.97
2023-01-28T02:21:17.541Z,2.95
2023-01-28T02:22:17.556Z,2.95
2023-01-28T02:23:17.586Z,2.92
2023-01-28T02:24:17.665Z,2.93
2023-01-28T02:25:17.816Z,2.87
2023-01-28T02:26:17.622Z,2.82
2023-01-28T02:27:17.641Z,2.84
2023-01-28T02:28:17.658Z,2.87
2023-01-28T02:29:17.674Z,2.97
2023-01-28T02:30:17.693Z,3.03
2023-01-28T02:31:17.830Z,2.99
2023-01-28T02:32:17.726Z,2.93
2023-01-28T02:33:17.742Z,3.00
2023-01-28T02:34:17.758Z,3.00
2023-01-28T02:35:17.791Z,3.05
2023-01-28T02:36:17.791Z,2.99
2023-01-28T02:37:17.823Z,2.92
2023-01-28T02:38:17.837Z,2.96
2023-01-28T02:39:17.842Z,2.96
2023-01-28T02:40:17.856Z,2.99
2023-01-28T02:41:17.877Z,2.97
2023-01-28T02:42:17.893Z,2.99
2023-01-28T02:43:17.912Z,2.95
2023-01-28T02:44:17.923Z,2.87
2023-01-28T02:45:17.941Z,2.96
2023-01-28T02:46:17.987Z,2.92
2023-01-28T02:47:17.974Z,2.96
2023-01-28T02:48:17.992Z,2.92
2023-01-28T02:49:18.008Z,2.99
2023-01-28T02:50:18.039Z,2.96
2023-01-28T02:51:18.064Z,2.93
2023-01-28T02:52:18.057Z,2.89
2023-01-28T02:53:18.075Z,2.95
2023-01-28T02:54:18.091Z,2.97
2023-01-28T02:55:18.105Z,2.90
2023-01-28T02:56:18.125Z,2.87
2023-01-28T02:57:18.141Z,2.89
2023-01-28T02:58:18.183Z,2.87
2023-01-28T02:59:18.180Z,2.92
2023-01-28T03:00:18.192Z,2.95
2023-01-28T03:01:18.253Z,2.82
2023-01-28T03:02:18.336Z,2.85
2023-01-28T03:03:18.241Z,2.90
2023-01-28T03:04:18.260Z,2.93
2023-01-28T03:05:18.273Z,2.84
2023-01-28T03:06:18.290Z,2.89
2023-01-28T03:07:18.318Z,2.87
2023-01-28T03:08:18.324Z,2.87
2023-01-28T03:09:18.341Z,2.92
2023-01-28T03:10:18.362Z,2.79
2023-01-28T03:11:18.376Z,2.90
2023-01-28T03:12:18.391Z,2.87
2023-01-28T03:13:18.408Z,2.89
2023-01-28T03:14:18.426Z,2.92
2023-01-28T03:15:18.441Z,2.97
2023-01-28T03:16:18.496Z,2.93
2023-01-28T03:17:18.480Z,2.84
2023-01-28T03:18:18.491Z,2.85
2023-01-28T03:19:18.507Z,2.84
2023-01-28T03:20:18.524Z,2.84
2023-01-28T03:21:18.539Z,2.96
2023-01-28T03:22:18.560Z,2.99
2023-01-28T03:23:18.624Z,3.02
2023-01-28T03:24:18.618Z,2.93
2023-01-28T03:25:18.608Z,2.96
2023-01-28T03:26:18.625Z,2.93
2023-01-28T03:27:18.641Z,2.99
2023-01-28T03:28:18.663Z,2.93
2023-01-28T03:29:18.679Z,3.00
2023-01-28T03:30:18.689Z,2.99
2023-01-28T03:31:18.707Z,3.03
2023-01-28T03:32:18.772Z,2.92
2023-01-28T03:33:18.751Z,2.97
2023-01-28T03:34:18.756Z,2.92
2023-01-28T03:35:18.774Z,2.97
2023-01-28T03:36:18.795Z,2.99
2023-01-28T03:37:18.809Z,3.00
2023-01-28T03:38:18.825Z,3.02
2023-01-28T03:39:18.864Z,3.03
2023-01-28T03:40:18.868Z,3.02
2023-01-28T03:41:18.876Z,3.03
2023-01-28T03:42:18.905Z,3.06
2023-01-28T03:43:18.915Z,3.08
2023-01-28T03:44:18.928Z,3.05
2023-01-28T03:45:18.942Z,3.06
2023-01-28T03:46:19.029Z,3.18
2023-01-28T03:47:18.977Z,3.13
2023-01-28T03:48:18.995Z,3.10
2023-01-28T03:49:19.012Z,3.08
2023-01-28T03:50:19.029Z,3.13
2023-01-28T03:51:19.057Z,3.15
2023-01-28T03:52:19.061Z,3.11
2023-01-28T03:53:19.084Z,3.10
2023-01-28T03:54:19.099Z,3.10
2023-01-28T03:55:19.113Z,3.10
2023-01-28T03:56:19.132Z,3.06
2023-01-28T03:57:19.180Z,3.03
2023-01-28T03:58:19.178Z,3.10
2023-01-28T03:59:19.184Z,2.97
2023-01-28T04:00:19.198Z,2.92
2023-01-28T04:01:19.231Z,2.96
2023-01-28T04:02:19.232Z,2.93
2023-01-28T04:03:19.261Z,2.97
2023-01-28T04:04:19.265Z,2.87
2023-01-28T04:05:19.285Z,2.99
2023-01-28T04:06:19.308Z,2.93
2023-01-28T04:07:19.312Z,2.92
2023-01-28T04:08:19.333Z,2.93
2023-01-28T04:09:19.350Z,2.87
2023-01-28T04:10:19.366Z,2.92
2023-01-28T04:11:19.433Z,2.99
2023-01-28T04:12:19.401Z,2.96
2023-01-28T04:13:19.420Z,2.97
2023-01-28T04:14:19.438Z,2.96
2023-01-28T04:15:19.460Z,2.96
2023-01-28T04:16:19.501Z,2.97
2023-01-28T04:17:19.485Z,3.10
2023-01-28T04:18:19.502Z,3.03
2023-01-28T04:19:19.522Z,3.06
2023-01-28T04:20:19.552Z,3.08
2023-01-28T04:21:19.552Z,3.18
2023-01-28T04:22:19.570Z,3.00
2023-01-28T04:23:19.585Z,3.03
2023-01-28T04:24:19.695Z,3.08
2023-01-28T04:25:19.620Z,3.08
2023-01-28T04:26:19.639Z,3.03
2023-01-28T04:27:19.656Z,3.05
2023-01-28T04:28:19.678Z,2.99
2023-01-28T04:29:19.693Z,3.03
2023-01-28T04:30:19.704Z,3.02
2023-01-28T04:31:19.734Z,3.02
2023-01-28T04:32:19.747Z,2.96
2023-01-28T04:33:19.755Z,2.89
2023-01-28T04:34:19.777Z,2.84
2023-01-28T04:35:19.793Z,2.89
2023-01-28T04:36:19.805Z,2.93
2023-01-28T04:37:19.825Z,2.92
2023-01-28T04:38:19.839Z,2.89
2023-01-28T04:39:19.860Z,2.78
2023-01-28T04:40:19.872Z,2.84
2023-01-28T04:41:19.890Z,2.81
2023-01-28T04:42:19.907Z,2.82
2023-01-28T04:43:19.960Z,2.81
2023-01-28T04:44:19.941Z,2.81
2023-01-28T04:45:19.958Z,2.71
2023-01-28T04:46:20.050Z,2.69
2023-01-28T04:47:19.996Z,2.75
2023-01-28T04:48:20.018Z,2.77
2023-01-28T04:49:20.031Z,2.77
2023-01-28T04:50:20.036Z,2.72
2023-01-28T04:51:20.061Z,2.67
2023-01-28T04:52:20.073Z,2.79
2023-01-28T04:53:20.091Z,2.75
2023-01-28T04:54:20.107Z,2.87
2023-01-28T04:55:20.143Z,2.82
2023-01-28T04:56:20.139Z,2.78
2023-01-28T04:57:20.155Z,2.81
2023-01-28T04:58:20.171Z,2.78
2023-01-28T04:59:20.191Z,2.78
2023-01-28T05:00:20.204Z,2.79
2023-01-28T05:01:20.230Z,2.92
2023-01-28T05:02:20.281Z,2.85
2023-01-28T05:03:20.258Z,2.90
2023-01-28T05:04:20.282Z,2.85
2023-01-28T05:05:20.290Z,2.89
2023-01-28T05:06:20.312Z,2.89
2023-01-28T05:07:20.329Z,2.87
2023-01-28T05:08:20.347Z,2.92
2023-01-28T05:09:20.355Z,2.89
2023-01-28T05:10:20.379Z,2.87
2023-01-28T05:11:20.391Z,2.89
2023-01-28T05:12:20.412Z,2.81
2023-01-28T05:13:20.423Z,2.85
2023-01-28T05:14:20.444Z,2.85
2023-01-28T05:15:20.465Z,2.87
2023-01-28T05:16:20.479Z,2.79
2023-01-28T05:17:20.495Z,2.89
2023-01-28T05:18:20.506Z,2.92
2023-01-28T05:19:20.523Z,2.85
2023-01-28T05:20:20.536Z,2.93
2023-01-28T05:21:20.556Z,2.79
2023-01-28T05:22:20.580Z,2.81
2023-01-28T05:23:20.591Z,2.81
2023-01-28T05:24:20.681Z,2.85
2023-01-28T05:25:20.629Z,2.78
2023-01-28T05:26:20.643Z,2.79
2023-01-28T05:27:20.660Z,2.87
2023-01-28T05:28:20.674Z,2.75
2023-01-28T05:29:20.692Z,2.81
2023-01-28T05:30:20.710Z,2.82
2023-01-28T05:31:20.731Z,2.84
2023-01-28T05:32:20.761Z,2.87
2023-01-28T05:33:20.764Z,2.87
2023-01-28T05:34:20.778Z,2.85
2023-01-28T05:35:20.793Z,2.96
2023-01-28T05:36:20.810Z,2.84
2023-01-28T05:37:20.826Z,2.87
2023-01-28T05:38:20.850Z,2.89
2023-01-28T05:39:20.864Z,2.87
2023-01-28T05:40:20.875Z,2.90
2023-01-28T05:41:20.921Z,2.85
2023-01-28T05:42:20.914Z,2.92
2023-01-28T05:43:20.932Z,2.89
2023-01-28T05:44:20.954Z,2.82
2023-01-28T05:45:21.008Z,2.87
2023-01-28T05:46:20.980Z,2.87
2023-01-28T05:47:21.000Z,2.89
2023-01-28T05:48:21.012Z,2.84
2023-01-28T05:49:21.029Z,2.75
2023-01-28T05:50:21.055Z,2.81
2023-01-28T05:51:21.078Z,2.77
2023-01-28T05:52:21.086Z,2.81
2023-01-28T05:53:21.123Z,2.78
2023-01-28T05:54:21.139Z,2.78
2023-01-28T05:55:21.191Z,2.71
2023-01-28T05:56:21.148Z,2.78
2023-01-28T05:57:21.172Z,2.74
2023-01-28T05:58:21.180Z,2.75
2023-01-28T05:59:21.206Z,2.72
2023-01-28T06:00:21.211Z,2.67
2023-01-28T06:01:21.230Z,2.66
2023-01-28T06:02:21.300Z,2.67
2023-01-28T06:03:21.262Z,2.64
2023-01-28T06:04:21.279Z,2.60
2023-01-28T06:05:21.339Z,2.63
2023-01-28T06:06:21.314Z,2.64
2023-01-28T06:07:21.343Z,2.63
2023-01-28T06:08:21.344Z,2.52
2023-01-28T06:09:21.368Z,2.48
2023-01-28T06:10:21.378Z,2.48
2023-01-28T06:11:21.395Z,2.56
2023-01-28T06:12:21.414Z,2.35
2023-01-28T06:13:21.428Z,2.43
2023-01-28T06:14:21.448Z,2.39
2023-01-28T06:15:21.466Z,2.36
2023-01-28T06:16:21.488Z,2.43
2023-01-28T06:17:21.499Z,2.46
2023-01-28T06:18:21.603Z,2.45
2023-01-28T06:19:21.525Z,2.39
2023-01-28T06:20:21.542Z,2.48
2023-01-28T06:21:21.563Z,2.41
2023-01-28T06:22:21.576Z,2.52
2023-01-28T06:23:21.597Z,2.53
2023-01-28T06:24:21.656Z,2.43
2023-01-28T06:25:21.629Z,2.41
2023-01-28T06:26:21.639Z,2.35
2023-01-28T06:27:21.687Z,2.35
2023-01-28T06:28:21.672Z,2.45
2023-01-28T06:29:21.687Z,2.39
2023-01-28T06:30:21.708Z,2.53
2023-01-28T06:31:21.726Z,2.39
2023-01-28T06:32:21.767Z,2.48
2023-01-28T06:33:21.768Z,2.49
2023-01-28T06:34:21.772Z,2.49
2023-01-28T06:35:21.790Z,2.46
2023-01-28T06:36:21.805Z,2.52
2023-01-28T06:37:21.820Z,2.52
2023-01-28T06:38:21.838Z,2.53
2023-01-28T06:39:21.856Z,2.53
2023-01-28T06:40:21.865Z,2.52
2023-01-28T06:41:21.884Z,2.54
2023-01-28T06:42:21.903Z,2.54
2023-01-28T06:43:21.919Z,2.59
2023-01-28T06:44:21.934Z,2.61
2023-01-28T06:45:21.961Z,2.63
2023-01-28T06:46:22.005Z,2.63
2023-01-28T06:47:21.994Z,2.54
2023-01-28T06:48:22.011Z,2.60
2023-01-28T06:49:22.021Z,2.56
2023-01-28T06:50:22.036Z,2.56
2023-01-28T06:51:22.052Z,2.59
2023-01-28T06:52:22.066Z,2.45
2023-01-28T06:53:22.093Z,2.49
2023-01-28T06:54:22.101Z,2.54
2023-01-28T06:55:22.121Z,2.48
2023-01-28T06:56:22.132Z,2.56
2023-01-28T06:57:22.156Z,2.41
2023-01-28T06:58:22.167Z,2.41
2023-01-28T06:59:22.182Z,2.34
2023-01-28T07:00:22.210Z,2.45
2023-01-28T07:01:22.329Z,2.31
2023-01-28T07:02:22.231Z,2.36
2023-01-28T07:03:22.291Z,2.31
2023-01-28T07:04:22.266Z,2.31
2023-01-28T07:05:22.281Z,2.28
2023-01-28T07:06:22.297Z,2.27
2023-01-28T07:07:22.315Z,2.34
2023-01-28T07:08:22.329Z,2.34
2023-01-28T07:09:22.346Z,2.38
2023-01-28T07:10:22.365Z,2.43
2023-01-28T07:11:22.400Z,2.41
2023-01-28T07:12:22.395Z,2.39
2023-01-28T07:13:22.419Z,2.41
2023-01-28T07:14:22.430Z,2.43
2023-01-28T07:15:22.450Z,2.43
2023-01-28T07:16:22.462Z,2.46
2023-01-28T07:17:22.510Z,2.42
2023-01-28T07:18:22.496Z,2.49
2023-01-28T07:19:22.511Z,2.49
2023-01-28T07:20:22.531Z,2.48
2023-01-28T07:21:22.546Z,2.46
2023-01-28T07:22:22.562Z,2.52
2023-01-28T07:23:22.584Z,2.49
2023-01-28T07:24:22.603Z,2.49
2023-01-28T07:25:22.619Z,2.45
2023-01-28T07:26:22.628Z,2.45
2023-01-28T07:27:22.650Z,2.46
2023-01-28T07:28:22.667Z,2.48
2023-01-28T07:29:22.688Z,2.48
2023-01-28T07:30:22.698Z,2.49
2023-01-28T07:31:22.858Z,2.52
2023-01-28T07:32:22.726Z,2.45
2023-01-28T07:33:22.742Z,2.53
2023-01-28T07:34:22.760Z,2.46
2023-01-28T07:35:22.788Z,2.53
2023-01-28T07:36:22.798Z,2.48
2023-01-28T07:37:22.807Z,2.52
2023-01-28T07:38:22.829Z,2.48
2023-01-28T07:39:22.840Z,2.49
2023-01-28T07:40:22.857Z,2.52
2023-01-28T07:41:22.877Z,2.52
2023-01-28T07:42:22.891Z,2.46
2023-01-28T07:43:22.907Z,2.54
2023-01-28T07:44:22.924Z,2.49
2023-01-28T07:45:22.938Z,2.46
2023-01-28T07:46:22.955Z,2.59
2023-01-28T07:47:23.073Z,2.53
2023-01-28T07:48:22.989Z,2.56
2023-01-28T07:49:23.021Z,2.60
2023-01-28T07:50:23.023Z,2.61
2023-01-28T07:51:23.039Z,2.61
2023-01-28T07:52:23.055Z,2.57
2023-01-28T07:53:23.078Z,2.69
2023-01-28T07:54:23.092Z,2.71
2023-01-28T07:55:23.104Z,2.61
2023-01-28T07:56:23.127Z,2.71
2023-01-28T07:57:23.156Z,2.69
2023-01-28T07:58:23.157Z,2.67
2023-01-28T07:59:23.171Z,2.67
2023-01-28T08:00:23.320Z,2.66
2023-01-28T08:01:23.242Z,2.66
2023-01-28T08:02:23.222Z,2.60
2023-01-28T08:03:23.239Z,2.66
2023-01-28T08:04:23.495Z,2.69
2023-01-28T08:05:23.423Z,2.66
2023-01-28T08:06:23.312Z,2.60
2023-01-28T08:07:23.307Z,2.67
2023-01-28T08:08:23.325Z,2.69
2023-01-28T08:09:23.343Z,2.66
2023-01-28T08:10:23.356Z,2.69
2023-01-28T08:11:23.380Z,2.69
2023-01-28T08:12:23.389Z,2.72
2023-01-28T08:13:23.404Z,2.75
2023-01-28T08:14:23.424Z,2.81
2023-01-28T08:15:23.474Z,2.84
2023-01-28T08:16:23.454Z,2.89
2023-01-28T08:17:23.471Z,2.87
2023-01-28T08:18:23.490Z,2.85
2023-01-28T08:19:23.515Z,2.95
2023-01-28T08:20:23.526Z,2.90
2023-01-28T08:21:23.543Z,2.84
2023-01-28T08:22:23.557Z,2.93
2023-01-28T08:23:24.517Z,2.79
2023-01-28T08:24:23.611Z,2.84
2023-01-28T08:25:23.607Z,2.89
2023-01-28T08:26:23.631Z,2.90
2023-01-28T08:27:23.660Z,2.93
2023-01-28T08:28:23.656Z,2.81
2023-01-28T08:29:23.672Z,2.97
2023-01-28T08:30:23.699Z,2.87
2023-01-28T08:31:23.739Z,2.90
2023-01-28T08:32:23.724Z,2.84
2023-01-28T08:33:23.741Z,2.84
2023-01-28T08:34:23.767Z,2.92
2023-01-28T08:35:23.775Z,2.96
2023-01-28T08:36:23.803Z,2.97
2023-01-28T08:37:23.810Z,2.90
2023-01-28T08:38:23.837Z,2.87
2023-01-28T08:39:23.843Z,2.79
2023-01-28T08:40:23.863Z,2.79
2023-01-28T08:41:23.882Z,2.74
2023-01-28T08:42:23.900Z,2.71
2023-01-28T08:43:23.916Z,2.66
2023-01-28T08:44:23.927Z,2.64
2023-01-28T08:45:26.112Z,2.71
2023-01-28T08:46:23.961Z,2.71
2023-01-28T08:47:23.986Z,2.66
2023-01-28T08:48:24.001Z,2.63
2023-01-28T08:49:24.010Z,2.60
2023-01-28T08:50:24.028Z,2.48
2023-01-28T08:51:24.047Z,2.60
2023-01-28T08:52:24.061Z,2.59
2023-01-28T08:53:24.077Z,2.69
2023-01-28T08:54:24.097Z,2.60
2023-01-28T08:55:24.120Z,2.71
2023-01-28T08:56:24.134Z,2.72
2023-01-28T08:57:24.147Z,2.61
2023-01-28T08:58:24.165Z,2.72
2023-01-28T08:59:24.182Z,2.75
2023-01-28T09:00:24.197Z,2.77
2023-01-28T09:01:24.242Z,2.81
2023-01-28T09:02:31.559Z,2.79
2023-01-28T09:03:24.309Z,2.77
2023-01-28T09:04:24.266Z,2.89
2023-01-28T09:05:24.282Z,2.74
2023-01-28T09:06:24.300Z,2.77
2023-01-28T09:07:24.318Z,2.81
2023-01-28T09:08:25.418Z,2.75
2023-01-28T09:09:24.349Z,2.79
2023-01-28T09:10:24.477Z,2.77
2023-01-28T09:11:24.385Z,2.81
2023-01-28T09:12:24.410Z,2.92
2023-01-28T09:13:24.427Z,2.95
2023-01-28T09:14:24.438Z,2.85
2023-01-28T09:15:24.464Z,2.95
2023-01-28T09:16:24.559Z,3.02
2023-01-28T09:17:24.496Z,3.05
2023-01-28T09:18:24.508Z,3.03
2023-01-28T09:19:24.523Z,3.05
2023-01-28T09:20:24.542Z,3.02
2023-01-28T09:21:24.554Z,2.95
2023-01-28T09:22:24.574Z,2.87
2023-01-28T09:23:24.591Z,2.89
2023-01-28T09:24:24.677Z,2.89
2023-01-28T09:25:24.645Z,2.90
2023-01-28T09:26:24.640Z,2.95
2023-01-28T09:27:24.662Z,2.97
2023-01-28T09:28:24.677Z,2.95
2023-01-28T09:29:24.691Z,3.00
2023-01-28T09:30:24.836Z,3.05
2023-01-28T09:31:24.896Z,3.06
2023-01-28T09:32:24.772Z,3.17
2023-01-28T09:33:24.770Z,3.10
2023-01-28T09:34:24.783Z,3.11
2023-01-28T09:35:24.794Z,3.18
2023-01-28T09:36:24.815Z,3.10
2023-01-28T09:37:24.829Z,3.18
2023-01-28T09:38:24.846Z,3.18
2023-01-28T09:39:24.865Z,3.20
2023-01-28T09:40:24.884Z,3.26
2023-01-28T09:41:24.901Z,3.33
2023-01-28T09:42:24.917Z,3.32
2023-01-28T09:43:24.936Z,3.29
2023-01-28T09:44:24.952Z,3.32
2023-01-28T09:45:24.963Z,3.24
2023-01-28T09:46:25.001Z,3.20
2023-01-28T09:47:25.005Z,3.15
2023-01-28T09:48:25.022Z,3.13
2023-01-28T09:49:25.040Z,3.18
2023-01-28T09:50:25.056Z,3.20
2023-01-28T09:51:25.071Z,3.06
2023-01-28T09:52:25.088Z,2.97
2023-01-28T09:53:25.111Z,3.00
2023-01-28T09:54:25.129Z,2.96
2023-01-28T09:55:25.168Z,3.00
2023-01-28T09:56:25.157Z,2.99
2023-01-28T09:57:25.182Z,2.93
2023-01-28T09:58:25.194Z,2.93
2023-01-28T09:59:25.211Z,3.05
2023-01-28T10:00:25.228Z,3.00
2023-01-28T10:01:25.244Z,3.00
2023-01-28T10:02:25.259Z,3.06
2023-01-28T10:03:25.337Z,3.21
2023-01-28T10:04:25.297Z,3.13
2023-01-28T10:05:25.315Z,3.31
2023-01-28T10:06:25.327Z,3.26
2023-01-28T10:07:25.348Z,3.29
2023-01-28T10:08:25.364Z,3.48
2023-01-28T10:09:25.384Z,3.26
2023-01-28T10:10:25.399Z,3.28
2023-01-28T10:11:25.416Z,3.24
2023-01-28T10:12:25.432Z,3.28
2023-01-28T10:13:25.451Z,3.28
2023-01-28T10:14:25.468Z,3.29
2023-01-28T10:15:25.491Z,3.36
2023-01-28T10:16:25.530Z,3.42
2023-01-28T10:17:25.540Z,3.47
2023-01-28T10:18:25.538Z,3.40
2023-01-28T10:19:25.569Z,3.52
2023-01-28T10:20:25.571Z,3.62
2023-01-28T10:21:25.591Z,3.54
2023-01-28T10:22:25.608Z,3.51
2023-01-28T10:23:25.627Z,3.52
2023-01-28T10:24:26.273Z,3.58
2023-01-28T10:25:25.664Z,3.54
2023-01-28T10:26:25.678Z,3.50
2023-01-28T10:27:25.705Z,3.50
2023-01-28T10:28:25.715Z,3.43
2023-01-28T10:29:25.729Z,3.45
2023-01-28T10:30:25.754Z,3.45
2023-01-28T10:31:25.799Z,3.45
2023-01-28T10:32:25.785Z,3.43
2023-01-28T10:33:25.808Z,3.45
2023-01-28T10:34:25.821Z,3.40
2023-01-28T10:35:25.847Z,3.40
2023-01-28T10:36:25.854Z,3.50
2023-01-28T10:37:25.874Z,3.48
2023-01-28T10:38:25.894Z,3.39
2023-01-28T10:39:25.913Z,3.47
2023-01-28T10:40:25.925Z,3.33
2023-01-28T10:41:25.942Z,3.26
2023-01-28T10:42:25.966Z,3.14
2023-01-28T10:43:25.985Z,3.08
2023-01-28T10:44:25.996Z,3.03
2023-01-28T10:45:26.013Z,3.05
2023-01-28T10:46:26.031Z,3.11
2023-01-28T10:47:26.052Z,2.90
2023-01-28T10:48:26.078Z,2.95
2023-01-28T10:49:26.085Z,3.06
2023-01-28T10:50:26.105Z,3.02
2023-01-28T10:51:26.119Z,3.00
2023-01-28T10:52:26.132Z,3.02
2023-01-28T10:53:27.176Z,3.02
2023-01-28T10:54:26.177Z,3.05
2023-01-28T10:55:26.189Z,3.05
2023-01-28T10:56:26.202Z,3.13
2023-01-28T10:57:26.221Z,3.10
2023-01-28T10:58:26.240Z,3.05
2023-01-28T10:59:26.255Z,3.10
2023-01-28T11:00:26.274Z,3.03
2023-01-28T11:01:26.333Z,3.00
2023-01-28T11:02:26.381Z,3.10
2023-01-28T11:03:26.326Z,2.96
2023-01-28T11:04:26.344Z,2.93
2023-01-28T11:05:26.357Z,2.90
2023-01-28T11:06:26.400Z,2.96
2023-01-28T11:07:26.394Z,2.82
2023-01-28T11:08:26.407Z,2.96
2023-01-28T11:09:26.429Z,2.97
2023-01-28T11:10:26.443Z,2.90
2023-01-28T11:11:26.462Z,2.96
2023-01-28T11:12:26.480Z,2.92
2023-01-28T11:13:26.506Z,2.92
2023-01-28T11:14:26.511Z,2.99
2023-01-28T11:15:26.530Z,2.96
2023-01-28T11:16:26.556Z,2.95
2023-01-28T11:17:26.599Z,3.02
2023-01-28T11:18:26.581Z,2.99
2023-01-28T11:19:26.663Z,3.03
2023-01-28T11:20:26.614Z,3.02
2023-01-28T11:21:26.635Z,3.15
2023-01-28T11:22:26.648Z,3.14
2023-01-28T11:23:26.681Z,3.28
2023-01-28T11:24:26.749Z,3.29
2023-01-28T11:25:26.702Z,3.26
2023-01-28T11:26:26.720Z,3.42
2023-01-28T11:27:26.736Z,3.43
2023-01-28T11:28:26.753Z,3.62
2023-01-28T11:29:26.774Z,3.50
2023-01-28T11:30:26.789Z,3.54
2023-01-28T11:31:26.829Z,3.55
2023-01-28T11:32:26.827Z,3.47
2023-01-28T11:33:26.841Z,3.54
2023-01-28T11:34:26.857Z,3.43
2023-01-28T11:35:26.876Z,3.36
2023-01-28T11:36:26.896Z,3.48
2023-01-28T11:37:26.911Z,3.28
2023-01-28T11:38:26.929Z,3.36
2023-01-28T11:39:26.946Z,3.40
2023-01-28T11:40:26.963Z,3.40
2023-01-28T11:41:26.983Z,3.45
2023-01-28T11:42:27.007Z,3.57
2023-01-28T11:43:27.025Z,3.51
2023-01-28T11:44:27.061Z,3.48
2023-01-28T11:45:27.053Z,3.51
2023-01-28T11:46:27.072Z,3.50
2023-01-28T11:47:27.090Z,3.45
2023-01-28T11:48:27.106Z,3.51
2023-01-28T11:49:27.120Z,3.43
2023-01-28T11:50:27.150Z,3.40
2023-01-28T11:51:27.159Z,3.45
2023-01-28T11:52:27.673Z,3.28
2023-01-28T11:53:27.197Z,3.26
2023-01-28T11:54:27.209Z,3.28
2023-01-28T11:55:27.226Z,3.31
2023-01-28T11:56:27.260Z,3.32
2023-01-28T11:57:27.275Z,3.26
2023-01-28T11:58:27.292Z,3.26
2023-01-28T11:59:27.307Z,3.31
2023-01-28T12:00:27.314Z,3.23
2023-01-28T12:01:27.331Z,3.26
2023-01-28T12:02:27.419Z,3.26
2023-01-28T12:03:27.363Z,3.26
2023-01-28T12:04:27.392Z,3.26
2023-01-28T12:05:27.407Z,3.36
2023-01-28T12:06:27.435Z,3.45
2023-01-28T12:07:27.435Z,3.40
2023-01-28T12:08:27.453Z,3.51
2023-01-28T12:09:27.469Z,3.54
2023-01-28T12:10:27.492Z,3.54
2023-01-28T12:11:27.545Z,3.50
2023-01-28T12:12:27.517Z,3.66
2023-01-28T12:13:27.543Z,3.62
2023-01-28T12:14:27.577Z,3.66
2023-01-28T12:15:27.577Z,3.69
2023-01-28T12:16:27.593Z,3.72
2023-01-28T12:17:27.607Z,3.75
2023-01-28T12:18:27.626Z,3.79
2023-01-28T12:19:27.664Z,3.72
2023-01-28T12:20:27.662Z,3.73
2023-01-28T12:21:27.678Z,3.79
2023-01-28T12:22:27.695Z,3.70
2023-01-28T12:23:27.721Z,3.61
2023-01-28T12:24:27.762Z,3.58
2023-01-28T12:25:27.756Z,3.62
2023-01-28T12:26:27.765Z,3.58
2023-01-28T12:27:27.778Z,3.65
2023-01-28T12:28:27.797Z,3.51
2023-01-28T12:29:27.819Z,3.65
2023-01-28T12:30:27.839Z,3.62
2023-01-28T12:31:28.009Z,3.60
2023-01-28T12:32:27.867Z,3.70
2023-01-28T12:33:27.890Z,3.78
2023-01-28T12:34:27.902Z,3.73
2023-01-28T12:35:27.920Z,3.79
2023-01-28T12:36:27.942Z,3.75
2023-01-28T12:37:27.957Z,3.58
2023-01-28T12:38:27.976Z,3.58
2023-01-28T12:39:27.991Z,3.62
2023-01-28T12:40:28.006Z,3.69
2023-01-28T12:41:28.024Z,3.62
2023-01-28T12:42:28.045Z,3.65
2023-01-28T12:43:28.060Z,3.65
2023-01-28T12:44:28.076Z,3.72
2023-01-28T12:45:28.148Z,3.75
2023-01-28T12:46:28.115Z,3.69
2023-01-28T12:47:28.132Z,3.69
2023-01-28T12:48:28.144Z,3.69
2023-01-28T12:49:28.164Z,3.79
2023-01-28T12:50:28.187Z,3.79
2023-01-28T12:51:28.213Z,3.87
2023-01-28T12:52:28.237Z,3.88
2023-01-28T12:53:28.232Z,3.94
2023-01-28T12:54:28.255Z,4.05
2023-01-28T12:55:28.274Z,4.04
2023-01-28T12:56:28.307Z,3.91
2023-01-28T12:57:28.308Z,4.06
2023-01-28T12:58:28.320Z,3.98
2023-01-28T12:59:28.344Z,4.09
2023-01-28T13:00:28.355Z,4.11
2023-01-28T13:01:28.374Z,4.18
2023-01-28T13:02:28.391Z,4.18
2023-01-28T13:03:28.415Z,4.20
2023-01-28T13:04:28.428Z,4.24
2023-01-28T13:05:28.445Z,4.18
2023-01-28T13:06:28.469Z,4.16
2023-01-28T13:07:28.487Z,4.20
2023-01-28T13:08:28.508Z,4.26
2023-01-28T13:09:28.519Z,4.14
2023-01-28T13:10:28.550Z,4.14
2023-01-28T13:11:28.552Z,4.12
2023-01-28T13:12:28.568Z,4.12
2023-01-28T13:13:28.590Z,4.04
2023-01-28T13:14:28.605Z,4.11
2023-01-28T13:15:28.624Z,4.05
2023-01-28T13:16:37.401Z,4.08
2023-01-28T13:17:28.675Z,4.12
2023-01-28T13:18:28.676Z,4.11